createdAt,value
2019-03-17T00:02:26.223Z,96669.01
2019-03-17T00:04:54.491Z,96665.39
2019-03-17T00:07:22.796Z,96663.30
2019-03-17T00:09:51.135Z,96666.27
2019-03-17T00:12:19.395Z,96658.82
2019-03-17T00:14:47.664Z,96659.83
2019-03-17T00:17:16.025Z,96656.59
2019-03-17T00:19:44.418Z,96657.96
2019-03-17T00:22:12.735Z,96653.36
2019-03-17T00:24:41.103Z,96650.48
2019-03-17T00:27:09.363Z,96646.77
2019-03-17T00:29:37.649Z,96640.31
2019-03-17T00:32:05.973Z,96642.41
2019-03-17T00:34:43.672Z,96646.33
2019-03-17T00:37:04.351Z,96639.13
2019-03-17T00:39:32.617Z,96632.89
2019-03-17T00:42:16.180Z,96632.89
2019-03-17T00:44:44.622Z,96635.02
2019-03-17T00:47:13.029Z,96630.28
2019-03-17T00:49:41.389Z,96637.50
2019-03-17T00:52:09.817Z,96629.66
2019-03-17T00:54:38.325Z,96622.97
2019-03-17T01:16:47.541Z,96601.63
2019-03-17T01:19:34.615Z,96601.59
2019-03-17T01:22:13.501Z,96597.26
2019-03-17T01:37:21.831Z,96586.75
2019-03-17T01:49:58.057Z,96584.21
2019-03-17T02:12:46.623Z,96554.81
2019-03-17T02:23:50.571Z,96550.55
2019-03-17T02:35:39.551Z,96547.11
2019-03-17T03:00:05.064Z,96544.59
2019-03-17T03:03:26.383Z,96553.66
2019-03-17T03:07:09.825Z,96542.52
2019-03-17T03:22:16.043Z,96531.93
2019-03-17T03:44:46.752Z,96514.23
2019-03-17T03:47:15.257Z,96510.38
2019-03-17T03:49:43.773Z,96513.62
2019-03-17T03:52:12.298Z,96526.61
2019-03-17T03:54:41.636Z,96520.87
2019-03-17T03:57:10.446Z,96524.84
2019-03-17T03:59:38.897Z,96533.16
2019-03-17T04:02:07.429Z,96529.44
2019-03-17T04:04:36.059Z,96524.27
2019-03-17T04:07:04.531Z,96523.39
2019-03-17T04:09:33.009Z,96521.66
2019-03-17T04:12:01.426Z,96525.59
2019-03-17T04:14:29.815Z,96530.68
2019-03-17T04:16:58.230Z,96529.80
2019-03-17T04:19:26.682Z,96529.31
2019-03-17T04:21:55.140Z,96517.81
2019-03-17T04:24:23.617Z,96529.09
2019-03-17T04:26:51.981Z,96527.45
2019-03-17T04:29:20.370Z,96524.36
2019-03-17T04:31:48.812Z,96522.50
2019-03-17T04:34:17.168Z,96518.73
2019-03-17T04:36:45.706Z,96521.55
2019-03-17T04:39:14.151Z,96514.42
2019-03-17T04:41:42.563Z,96510.92
2019-03-17T04:44:20.379Z,96513.48
2019-03-17T04:46:41.392Z,96510.47
2019-03-17T04:49:09.808Z,96500.99
2019-03-17T04:51:38.233Z,96506.14
2019-03-17T04:54:06.721Z,96504.38
2019-03-17T04:56:35.052Z,96507.95
2019-03-17T04:59:03.431Z,96507.45
2019-03-17T05:01:32.006Z,96512.89
2019-03-17T05:04:00.353Z,96505.26
2019-03-17T05:06:28.777Z,96506.28
2019-03-17T05:08:57.167Z,96507.16
2019-03-17T05:11:25.503Z,96504.30
2019-03-17T05:13:53.979Z,96506.55
2019-03-17T05:16:22.518Z,96511.14
2019-03-17T05:18:50.902Z,96504.95
2019-03-17T05:21:19.429Z,96509.23
2019-03-17T05:23:47.976Z,96503.05
2019-03-17T05:26:16.352Z,96503.80
2019-03-17T05:28:44.844Z,96498.30
2019-03-17T05:31:13.175Z,96501.75
2019-03-17T05:33:41.682Z,96499.13
2019-03-17T05:36:10.086Z,96495.02
2019-03-17T05:38:38.669Z,96497.48
2019-03-17T05:41:07.035Z,96494.63
2019-03-17T05:43:35.551Z,96486.93
2019-03-17T05:46:04.031Z,96492.48
2019-03-17T05:48:32.529Z,96478.66
2019-03-17T05:51:01.091Z,96478.05
2019-03-17T05:53:29.479Z,96474.21
2019-03-17T05:55:58.033Z,96474.07
2019-03-17T05:58:26.559Z,96466.30
2019-03-17T06:00:54.934Z,96463.70
2019-03-17T06:03:23.449Z,96460.52
2019-03-17T06:05:51.839Z,96461.37
2019-03-17T06:08:20.329Z,96451.26
2019-03-17T06:10:48.813Z,96441.14
2019-03-17T06:13:17.217Z,96437.31
2019-03-17T06:15:45.709Z,96440.11
2019-03-17T06:18:14.085Z,96444.61
2019-03-17T06:20:42.701Z,96434.23
2019-03-17T06:23:11.114Z,96426.61
2019-03-17T06:25:39.591Z,96422.58
2019-03-17T06:28:08.021Z,96423.96
2019-03-17T06:30:36.568Z,96424.27
2019-03-17T06:33:05.061Z,96421.92
2019-03-17T06:35:33.432Z,96425.50
2019-03-17T06:38:01.871Z,96424.63
2019-03-17T06:40:30.442Z,96421.17
2019-03-17T06:42:58.925Z,96403.14
2019-03-17T06:45:27.348Z,96404.28
2019-03-17T06:47:55.865Z,96400.34
2019-03-17T06:50:24.255Z,96399.62
2019-03-17T06:52:53.629Z,96400.54
2019-03-17T06:55:22.298Z,96400.23
2019-03-17T06:57:50.787Z,96388.64
2019-03-17T07:00:19.162Z,96388.53
2019-03-17T07:02:47.586Z,96389.42
2019-03-17T07:05:15.891Z,96383.02
2019-03-17T07:07:44.899Z,96390.58
2019-03-17T07:10:13.340Z,96384.39
2019-03-17T07:12:41.732Z,96396.43
2019-03-17T07:15:11.382Z,96395.83
2019-03-17T07:17:39.802Z,96402.14
2019-03-17T07:20:15.400Z,96404.00
2019-03-17T07:22:43.789Z,96403.50
2019-03-17T07:25:12.353Z,96392.55
2019-03-17T07:27:40.757Z,96397.11
2019-03-17T07:30:17.532Z,95699.51
2019-03-17T07:32:45.913Z,96387.69
2019-03-17T07:35:14.408Z,96388.25
2019-03-17T07:37:55.868Z,96386.66
2019-03-17T07:40:14.939Z,96380.98
2019-03-17T07:42:43.264Z,96374.50
2019-03-17T07:45:12.251Z,96368.62
2019-03-17T07:47:40.559Z,96375.61
2019-03-17T07:50:13.156Z,96377.23
2019-03-17T07:52:41.575Z,96378.56
2019-03-17T07:55:10.549Z,96380.76
2019-03-17T07:57:38.884Z,96358.55
2019-03-17T08:00:11.728Z,96342.63
2019-03-17T08:02:40.006Z,96332.88
2019-03-17T08:05:09.571Z,96333.08
2019-03-17T08:07:37.865Z,96330.83
2019-03-17T08:10:09.447Z,96334.69
2019-03-17T08:12:37.714Z,96327.95
2019-03-17T08:15:08.730Z,96325.30
2019-03-17T08:17:37.025Z,96341.80
2019-03-17T08:20:06.929Z,96336.58
2019-03-17T08:22:35.182Z,96319.99
2019-03-17T08:25:03.931Z,96332.63
2019-03-17T08:27:32.196Z,96380.53
2019-03-17T08:30:00.448Z,96384.45
2019-03-17T08:32:28.791Z,96393.32
2019-03-17T08:34:57.063Z,96385.75
2019-03-17T08:37:25.314Z,96385.83
2019-03-17T08:39:53.571Z,96371.28
2019-03-17T08:42:21.840Z,96381.09
2019-03-17T08:44:50.092Z,96385.06
2019-03-17T08:47:18.381Z,96376.05
2019-03-17T08:49:46.640Z,96377.17
2019-03-17T08:52:16.576Z,96378.09
2019-03-17T08:54:44.847Z,96377.35
2019-03-17T08:57:13.096Z,96389.59
2019-03-17T08:59:41.350Z,96386.81
2019-03-17T09:02:09.637Z,96380.90
2019-03-17T09:04:37.927Z,96376.31
2019-03-17T09:07:06.184Z,96381.66
2019-03-17T09:09:34.458Z,96379.49
2019-03-17T09:12:02.713Z,96377.56
2019-03-17T09:14:30.965Z,96374.78
2019-03-17T09:16:59.241Z,96380.91
2019-03-17T09:19:27.490Z,96378.55
2019-03-17T09:21:55.824Z,96367.00
2019-03-17T09:24:24.101Z,96354.67
2019-03-17T09:26:52.349Z,96363.13
2019-03-17T09:29:20.630Z,96368.06
2019-03-17T09:31:48.879Z,96373.50
2019-03-17T09:34:17.153Z,96370.39
2019-03-17T09:36:45.476Z,96367.18
2019-03-17T09:39:13.791Z,96361.97
2019-03-17T09:41:42.008Z,96359.72
2019-03-17T09:44:10.261Z,96356.31
2019-03-17T09:46:38.545Z,96349.28
2019-03-17T09:49:06.830Z,96345.49
2019-03-17T09:51:35.093Z,96337.22
2019-03-17T09:54:03.415Z,96230.11
2019-03-17T09:56:31.730Z,96335.22
2019-03-17T09:58:59.996Z,96334.46
2019-03-17T10:01:28.264Z,96328.39
2019-03-17T10:03:56.529Z,96333.97
2019-03-17T10:06:24.795Z,96331.53
2019-03-17T10:09:00.083Z,96329.98
2019-03-17T10:11:23.772Z,96342.63
2019-03-17T10:13:52.040Z,96318.03
2019-03-17T10:16:20.299Z,96327.67
2019-03-17T10:18:48.543Z,96322.22
2019-03-17T10:21:16.827Z,96324.56
2019-03-17T10:23:45.081Z,96323.09
2019-03-17T10:26:13.650Z,96324.07
2019-03-17T10:28:41.902Z,96309.71
2019-03-17T10:31:10.145Z,96302.24
2019-03-17T10:33:40.295Z,96299.84
2019-03-17T10:36:09.012Z,96288.38
2019-03-17T10:38:37.585Z,96282.89
2019-03-17T10:41:06.256Z,96285.69
2019-03-17T10:43:34.778Z,96290.88
2019-03-17T10:46:03.390Z,96276.65
2019-03-17T10:48:31.955Z,96290.64
2019-03-17T10:51:03.084Z,96281.07
2019-03-17T10:53:31.340Z,96285.84
2019-03-17T10:55:59.602Z,96291.16
2019-03-17T10:58:27.881Z,96290.44
2019-03-17T11:00:56.450Z,96278.31
2019-03-17T11:03:25.037Z,96275.38
2019-03-17T11:05:54.480Z,96282.17
2019-03-17T11:08:23.231Z,96271.19
2019-03-17T11:10:51.628Z,96268.41
2019-03-17T11:13:19.905Z,96279.76
2019-03-17T11:16:05.282Z,96279.70
2019-03-17T11:18:33.687Z,96269.55
2019-03-17T11:21:01.933Z,96266.83
2019-03-17T11:23:30.204Z,96278.62
2019-03-17T11:25:58.434Z,96285.42
2019-03-17T11:28:26.698Z,95992.29
2019-03-17T11:30:58.772Z,96287.38
2019-03-17T11:33:27.113Z,96280.14
2019-03-17T11:35:55.434Z,96279.52
2019-03-17T11:38:23.731Z,96268.73
2019-03-17T11:40:52.065Z,96273.77
2019-03-17T11:43:20.318Z,96272.81
2019-03-17T11:45:50.647Z,96269.69
2019-03-17T11:48:18.546Z,96265.41
2019-03-17T11:50:48.462Z,96269.30
2019-03-17T11:53:19.834Z,96257.42
2019-03-17T12:02:00.690Z,96235.37
2019-03-17T12:04:28.631Z,96233.29
2019-03-17T12:06:56.915Z,96230.44
2019-03-17T12:09:29.322Z,96235.95
2019-03-17T12:11:55.170Z,96225.41
2019-03-17T12:14:23.482Z,96224.95
2019-03-17T12:16:51.745Z,96218.28
2019-03-17T12:19:20.008Z,96213.56
2019-03-17T12:21:48.437Z,96211.98
2019-03-17T12:24:16.694Z,96221.72
2019-03-17T12:26:44.945Z,96225.28
2019-03-17T12:29:13.206Z,96228.02
2019-03-17T12:31:41.455Z,96177.13
2019-03-17T12:34:09.725Z,96210.00
2019-03-17T12:36:38.083Z,96219.06
2019-03-17T12:39:06.936Z,96201.87
2019-03-17T12:41:38.114Z,96207.68
2019-03-17T12:44:05.247Z,96192.59
2019-03-17T12:46:34.612Z,96187.38
2019-03-17T12:49:02.901Z,96211.80
2019-03-17T12:51:31.151Z,96189.81
2019-03-17T12:53:59.409Z,96188.58
2019-03-17T12:56:27.676Z,96185.34
2019-03-17T12:58:55.930Z,96204.83
2019-03-17T13:01:25.942Z,96210.63
2019-03-17T13:03:54.196Z,96210.44
2019-03-17T13:06:22.449Z,96189.22
2019-03-17T13:08:50.725Z,96173.12
2019-03-17T13:11:18.989Z,96166.92
2019-03-17T13:13:47.249Z,96169.24
2019-03-17T13:16:33.684Z,96148.78
2019-03-17T13:19:01.930Z,96154.58
2019-03-17T13:21:30.197Z,96167.59
2019-03-17T13:23:58.521Z,96161.88
2019-03-17T13:26:26.783Z,96159.87
2019-03-17T13:28:55.061Z,96150.77
2019-03-17T13:31:23.320Z,96147.13
2019-03-17T13:33:57.887Z,96135.75
2019-03-17T13:36:26.140Z,96127.81
2019-03-17T13:38:54.407Z,96154.94
2019-03-17T13:41:22.807Z,96135.47
2019-03-17T13:43:51.074Z,96157.41
2019-03-17T13:46:19.380Z,96153.08
2019-03-17T13:48:47.603Z,96172.44
2019-03-17T13:51:15.884Z,96176.25
2019-03-17T13:53:44.129Z,96149.23
2019-03-17T13:56:12.389Z,96132.34
2019-03-17T13:58:40.649Z,96134.51
2019-03-17T14:01:08.906Z,96163.24
2019-03-17T14:03:37.155Z,96162.03
2019-03-17T14:06:05.401Z,96171.03
2019-03-17T14:08:33.677Z,96160.36
2019-03-17T14:11:02.075Z,96167.95
2019-03-17T14:13:30.557Z,96182.00
2019-03-17T14:15:58.827Z,96178.56
2019-03-17T14:18:27.094Z,96174.24
2019-03-17T14:20:55.355Z,96174.64
2019-03-17T14:23:24.522Z,96193.24
2019-03-17T14:25:52.775Z,96190.56
2019-03-17T14:28:21.030Z,96191.09
2019-03-17T14:30:49.297Z,96192.56
2019-03-17T14:33:17.569Z,96195.47
2019-03-17T14:35:45.878Z,96191.33
2019-03-17T14:38:14.176Z,96183.23
2019-03-17T14:40:52.892Z,96182.00
2019-03-17T14:43:12.417Z,96169.85
2019-03-17T14:45:40.668Z,96154.70
2019-03-17T14:48:08.925Z,96151.91
2019-03-17T14:50:37.177Z,96168.59
2019-03-17T14:53:05.430Z,96175.22
2019-03-17T14:55:33.686Z,96175.91
2019-03-17T14:58:01.987Z,96182.61
2019-03-17T15:00:30.316Z,96194.83
2019-03-17T15:02:58.569Z,96193.72
2019-03-17T15:05:26.849Z,96194.71
2019-03-17T15:07:55.102Z,96194.55
2019-03-17T15:10:24.491Z,96210.40
2019-03-17T15:12:52.749Z,96201.96
2019-03-17T15:15:21.942Z,96192.67
2019-03-17T15:17:50.220Z,96183.02
2019-03-17T15:20:20.714Z,96188.80
2019-03-17T15:22:48.992Z,96184.92
2019-03-17T15:25:17.278Z,96187.72
2019-03-17T15:27:45.510Z,96195.95
2019-03-17T15:30:30.319Z,96191.27
2019-03-17T15:32:58.597Z,96222.99
2019-03-17T15:35:26.857Z,96227.72
2019-03-17T15:37:55.104Z,96226.88
2019-03-17T15:40:23.360Z,96235.48
2019-03-17T15:42:51.622Z,96248.23
2019-03-17T15:45:21.135Z,96249.33
2019-03-17T15:47:49.396Z,96265.52
2019-03-17T15:50:21.884Z,96282.23
2019-03-17T15:52:50.140Z,96291.38
2019-03-17T15:55:18.414Z,96326.29
2019-03-17T15:57:46.683Z,96343.84
2019-03-17T16:00:25.115Z,96357.75
2019-03-17T16:02:47.672Z,96361.37
2019-03-17T16:05:15.892Z,96361.49
2019-03-17T16:07:44.167Z,96374.23
2019-03-17T16:10:21.401Z,96392.53
2019-03-17T16:12:49.672Z,96409.77
2019-03-17T16:15:18.106Z,96450.87
2019-03-17T16:17:46.387Z,96456.44
2019-03-17T16:20:19.805Z,96484.66
2019-03-17T16:22:48.095Z,96488.73
2019-03-17T16:25:21.030Z,96487.73
2019-03-17T16:27:49.307Z,96531.14
2019-03-17T16:30:30.875Z,96565.47
2019-03-17T16:32:59.126Z,96570.91
2019-03-17T16:35:27.384Z,96587.63
2019-03-17T16:37:55.718Z,96593.75
2019-03-17T16:40:26.303Z,96605.37
2019-03-17T16:42:54.543Z,96599.73
2019-03-17T16:45:22.812Z,96625.37
2019-03-17T16:47:51.094Z,96627.45
2019-03-17T16:50:23.306Z,96637.75
2019-03-17T16:52:51.622Z,96644.48
2019-03-17T16:55:19.876Z,96665.33
2019-03-17T16:57:48.125Z,96661.75
2019-03-17T17:00:19.313Z,96658.98
2019-03-17T17:02:48.345Z,96665.99
2019-03-17T17:05:20.391Z,96674.47
2019-03-17T17:07:48.659Z,96392.24
2019-03-17T17:10:24.546Z,96716.28
2019-03-17T17:12:52.790Z,96717.71
2019-03-17T17:15:28.975Z,96735.55
2019-03-17T17:17:57.221Z,96726.64
2019-03-17T17:20:34.608Z,96727.97
2019-03-17T17:23:02.867Z,96722.83
2019-03-17T17:25:31.119Z,96714.14
2019-03-17T17:27:59.377Z,96717.80
2019-03-17T17:30:27.623Z,96722.91
2019-03-17T17:32:55.934Z,96720.56
2019-03-17T17:35:24.213Z,96718.57
2019-03-17T17:37:52.455Z,96727.53
2019-03-17T17:40:22.711Z,96730.03
2019-03-17T17:42:50.963Z,96737.88
2019-03-17T17:45:22.835Z,96730.84
2019-03-17T17:47:51.155Z,96735.07
2019-03-17T17:50:21.819Z,96744.78
2019-03-17T17:52:50.083Z,96744.77
2019-03-17T17:55:18.342Z,96754.66
2019-03-17T17:57:46.620Z,96753.66
2019-03-17T18:00:32.052Z,96758.23
2019-03-17T18:03:00.385Z,96739.85
2019-03-17T18:05:28.624Z,96744.43
2019-03-17T18:07:57.113Z,96744.67
2019-03-17T18:10:25.405Z,96752.23
2019-03-17T18:12:53.709Z,96750.55
2019-03-17T18:15:24.291Z,96757.47
2019-03-17T18:17:52.530Z,96758.62
2019-03-17T18:20:20.901Z,96758.98
2019-03-17T18:22:49.153Z,96765.12
2019-03-17T18:25:18.665Z,96764.22
2019-03-17T18:27:46.929Z,96760.09
2019-03-17T18:30:18.436Z,96773.13
2019-03-17T18:32:46.686Z,96795.62
2019-03-17T18:35:14.999Z,96805.11
2019-03-17T18:37:43.244Z,96815.77
2019-03-17T18:40:13.500Z,96821.13
2019-03-17T18:42:41.755Z,96828.38
2019-03-17T18:45:19.054Z,96833.15
2019-03-17T18:47:47.312Z,96839.06
2019-03-17T18:50:20.683Z,96860.45
2019-03-17T18:52:45.649Z,96883.84
2019-03-17T18:55:14.943Z,96882.23
2019-03-17T18:57:43.199Z,96891.88
2019-03-17T19:00:14.746Z,96891.11
2019-03-17T19:02:43.000Z,96894.97
2019-03-17T19:05:19.370Z,96898.89
2019-03-17T19:07:46.161Z,96899.52
2019-03-17T19:10:22.022Z,96910.98
2019-03-17T19:12:50.668Z,96922.63
2019-03-17T19:15:22.358Z,96925.98
2019-03-17T19:17:50.741Z,96941.25
2019-03-17T19:20:19.993Z,96955.61
2019-03-17T19:22:48.216Z,96943.23
2019-03-17T19:25:18.789Z,96942.50
2019-03-17T19:27:47.088Z,96944.59
2019-03-17T19:30:19.838Z,96957.60
2019-03-17T19:32:48.093Z,96963.73
2019-03-17T19:35:17.349Z,96965.23
2019-03-17T19:37:45.614Z,96973.09
2019-03-17T19:40:16.367Z,96979.52
2019-03-17T19:42:57.440Z,96989.87
2019-03-17T19:45:14.756Z,96995.63
2019-03-17T19:47:43.035Z,96998.27
2019-03-17T19:50:16.699Z,96995.83
2019-03-17T19:52:48.086Z,97009.81
2019-03-17T19:55:16.381Z,97024.08
2019-03-17T19:57:44.692Z,97012.50
2019-03-17T20:00:17.902Z,97016.02
2019-03-17T20:02:47.702Z,97017.62
2019-03-17T20:05:16.325Z,97026.30
2019-03-17T20:07:44.677Z,97022.95
2019-03-17T20:10:18.530Z,97037.53
2019-03-17T20:12:46.795Z,97056.01
2019-03-17T20:15:15.165Z,97043.81
2019-03-17T20:17:43.443Z,97052.06
2019-03-17T20:20:13.560Z,97044.70
2019-03-17T20:22:41.842Z,97051.82
2019-03-17T20:25:10.259Z,97058.21
2019-03-17T20:27:38.605Z,97047.35
2019-03-17T20:30:14.825Z,97066.30
2019-03-17T20:32:43.107Z,97064.20
2019-03-17T20:35:12.605Z,97071.06
2019-03-17T20:37:40.927Z,97070.70
2019-03-17T20:40:11.221Z,97059.59
2019-03-17T20:42:39.462Z,97074.56
2019-03-17T20:45:09.992Z,97076.56
2019-03-17T20:47:38.260Z,97080.94
2019-03-17T20:50:09.408Z,97077.19
2019-03-17T20:52:39.328Z,97072.08
2019-03-17T20:55:09.317Z,97087.91
2019-03-17T20:57:37.595Z,97084.55
2019-03-17T21:00:11.766Z,97076.80
2019-03-17T21:02:40.047Z,97085.92
2019-03-17T21:05:09.925Z,97082.66
2019-03-17T21:07:38.383Z,97087.64
2019-03-17T21:10:09.490Z,97090.14
2019-03-17T21:12:37.792Z,97087.53
2019-03-17T21:15:09.472Z,97087.89
2019-03-17T21:17:37.810Z,97096.26
2019-03-17T21:20:11.647Z,97100.87
2019-03-17T21:22:40.847Z,97102.37
2019-03-17T21:25:09.366Z,97097.38
2019-03-17T21:27:37.649Z,97088.53
2019-03-17T21:30:18.359Z,97089.77
2019-03-17T21:32:46.780Z,97096.13
2019-03-17T21:35:15.101Z,97090.27
2019-03-17T21:37:43.422Z,97106.48
2019-03-17T21:40:12.518Z,97108.21
2019-03-17T21:42:40.879Z,97105.98
2019-03-17T21:45:12.857Z,97115.56
2019-03-17T21:47:41.270Z,97115.08
2019-03-17T21:50:21.698Z,97112.81
2019-03-17T21:52:50.030Z,97116.30
2019-03-17T21:55:19.387Z,97115.42
2019-03-17T21:57:49.368Z,97115.70
2019-03-17T22:00:20.795Z,97125.94
2019-03-17T22:02:49.131Z,97124.16
2019-03-17T22:05:17.437Z,97111.97
2019-03-17T22:07:50.172Z,97115.70
2019-03-17T22:10:19.614Z,97118.56
2019-03-17T22:12:47.911Z,97120.93
2019-03-17T22:15:17.327Z,97131.86
2019-03-17T22:17:45.603Z,97136.23
2019-03-17T22:20:14.768Z,97145.95
2019-03-17T22:22:43.090Z,97142.56
2019-03-17T22:25:16.025Z,97150.05
2019-03-17T22:27:44.400Z,97158.62
2019-03-17T22:30:19.905Z,97168.20
2019-03-17T22:32:48.164Z,97161.36
2019-03-17T22:35:16.443Z,97165.34
2019-03-17T22:37:44.735Z,97166.83
2019-03-17T22:40:18.344Z,97176.44
2019-03-17T22:42:46.700Z,97179.66
2019-03-17T22:45:15.845Z,97189.00
2019-03-17T22:47:44.212Z,97198.58
2019-03-17T22:50:13.719Z,97196.84
2019-03-17T22:52:41.991Z,97198.94
2019-03-17T22:55:10.317Z,97209.39
2019-03-17T22:57:38.602Z,97213.53
2019-03-17T23:00:17.515Z,97218.51
2019-03-17T23:02:45.829Z,97223.85
2019-03-17T23:05:14.114Z,97231.09
2019-03-17T23:07:42.463Z,97232.21
2019-03-17T23:10:11.813Z,97240.05
2019-03-17T23:12:40.100Z,97238.57
2019-03-17T23:15:11.078Z,97231.45
2019-03-17T23:17:39.396Z,97233.33
2019-03-17T23:20:12.642Z,97226.97
2019-03-17T23:22:40.947Z,97234.44
2019-03-17T23:25:10.146Z,97239.69
2019-03-17T23:27:38.437Z,97237.69
2019-03-17T23:30:14.909Z,97232.61
2019-03-17T23:32:43.288Z,97234.70
2019-03-17T23:35:11.641Z,97235.84
2019-03-17T23:37:39.966Z,97232.11
2019-03-17T23:40:10.011Z,97238.47
2019-03-17T23:42:38.358Z,97033.53
2019-03-17T23:45:09.002Z,97250.57
2019-03-17T23:47:37.384Z,97249.33
2019-03-17T23:50:08.607Z,97263.62
2019-03-17T23:52:36.933Z,97250.67
2019-03-17T23:55:06.731Z,97252.90
2019-03-17T23:57:35.077Z,97254.90
